Time;durP1;ratioP1;P1;durP2;ratioP2;P2;SDS_P1;SDS_P2;PMS_P1;PMS_P2;Temp;Humidity;BMP_temperature;BMP_pressure;BME280_temperature;BME280_humidity;BME280_pressure;Samples;Min_cycle;Max_cycle;Signal;HPM_P1;HPM_P2
2021/03/06 00:00:23;;;;;;;;;;;;;;;2.45;100.00;100933.13;5016479;28;20012;-79
2021/03/06 00:02:53;;;;;;;;;;;;;;;2.36;100.00;100937.84;4999065;28;20423;-79
2021/03/06 00:05:21;;;;;;;;;;;;;;;2.46;100.00;100929.22;5015007;28;19930;-79
2021/03/06 00:07:47;;;;;;;;;;;;;;;2.49;100.00;100926.66;5015133;28;19926;-80
2021/03/06 00:10:15;;;;;;;;;;;;;;;2.37;100.00;100920.97;5016284;28;20304;-79
2021/03/06 00:12:43;;;;;;;;;;;;;;;2.52;100.00;100919.66;5014557;28;19926;-79
2021/03/06 00:15:11;;;;;;;;;;;;;;;2.47;100.00;100919.84;5016254;28;19926;-79
2021/03/06 00:17:37;;;;;;;;;;;;;;;2.30;100.00;100920.66;5016576;28;19933;-80
2021/03/06 00:20:04;;;;;;;;;;;;;;;2.45;100.00;100924.84;5014821;28;20072;-79
2021/03/06 00:22:31;;;;;;;;;;;;;;;2.44;100.00;100914.97;4998724;28;19980;-79
2021/03/06 00:24:58;;;;;;;;;;;;;;;2.35;100.00;100917.72;5016058;28;20332;-79
2021/03/06 00:27:25;;;;;;;;;;;;;;;2.34;100.00;100920.78;4995124;28;19926;-79
2021/03/06 00:29:52;;;;;;;;;;;;;;;2.32;100.00;100917.56;5009368;28;20331;-80
2021/03/06 00:32:18;;;;;;;;;;;;;;;2.23;100.00;100919.50;5015761;28;19925;-80
2021/03/06 00:34:45;;;;;;;;;;;;;;;2.25;100.00;100917.22;4998355;28;20332;-80
2021/03/06 00:37:11;;;;;;;;;;;;;;;2.25;100.00;100922.75;5014342;28;20487;-79
2021/03/06 00:39:38;;;;;;;;;;;;;;;2.08;100.00;100923.53;5014328;28;19972;-79
2021/03/06 00:42:04;;;;;;;;;;;;;;;1.89;100.00;100921.06;5030765;28;19940;-80
2021/03/06 00:44:32;;;;;;;;;;;;;;;1.81;100.00;100924.63;5014380;28;19926;-79
2021/03/06 00:46:59;;;;;;;;;;;;;;;1.69;100.00;100931.91;5015780;28;20656;-80
2021/03/06 00:49:28;;;;;;;;;;;;;;;1.61;100.00;100933.50;5014291;28;19932;-80
2021/03/06 00:51:56;;;;;;;;;;;;;;;1.38;100.00;100925.59;5014302;28;19926;-79
2021/03/06 00:54:23;;;;;;;;;;;;;;;1.30;100.00;100927.19;5014176;28;19960;-79
2021/03/06 00:56:50;;;;;;;;;;;;;;;1.26;100.00;100923.47;5030302;28;19926;-78
2021/03/06 00:59:19;;;;;;;;;;;;;;;1.12;100.00;100921.94;5014543;28;19933;-79
2021/03/06 01:01:48;;;;;;;;;;;;;;;0.99;100.00;100920.91;5014163;28;19932;-80
2021/03/06 01:04:15;;;;;;;;;;;;;;;0.95;100.00;100925.44;4997652;28;19957;-79
2021/03/06 01:06:41;;;;;;;;;;;;;;;0.88;100.00;100933.31;4998121;28;19941;-80
2021/03/06 01:09:08;;;;;;;;;;;;;;;0.81;100.00;100932.94;5013863;28;20012;-80
2021/03/06 01:11:35;;;;;;;;;;;;;;;0.76;100.00;100940.53;5013560;28;19961;-80
2021/03/06 01:14:02;;;;;;;;;;;;;;;0.65;100.00;100939.94;5014792;28;20526;-80
2021/03/06 01:16:29;;;;;;;;;;;;;;;0.59;100.00;100943.94;5014957;28;19925;-80
2021/03/06 01:18:55;;;;;;;;;;;;;;;0.47;100.00;100940.94;5013903;28;19925;-80
2021/03/06 01:21:31;;;;;;;;;;;;;;;0.43;100.00;100942.69;5015039;28;19953;-80
2021/03/06 01:23:58;;;;;;;;;;;;;;;0.42;100.00;100946.59;5013829;28;19932;-79
2021/03/06 01:26:24;;;;;;;;;;;;;;;0.37;100.00;100943.94;5030598;28;20024;-79
2021/03/06 01:28:51;;;;;;;;;;;;;;;0.24;100.00;100947.56;5014761;28;20376;-79
2021/03/06 01:31:17;;;;;;;;;;;;;;;0.23;100.00;100948.66;5014973;28;19985;-79
2021/03/06 01:33:44;;;;;;;;;;;;;;;0.15;100.00;100940.34;5013504;28;19925;-80
2021/03/06 01:36:11;;;;;;;;;;;;;;;0.16;100.00;100948.28;5013395;28;20391;-79
2021/03/06 01:38:37;;;;;;;;;;;;;;;0.24;100.00;100944.00;5013176;28;20269;-79
2021/03/06 01:41:04;;;;;;;;;;;;;;;0.23;100.00;100954.16;5013359;28;19925;-79
2021/03/06 01:43:31;;;;;;;;;;;;;;;0.07;100.00;100952.88;5015138;28;20266;-78
2021/03/06 01:45:57;;;;;;;;;;;;;;;-0.04;100.00;100956.97;4996914;28;19956;-79
2021/03/06 01:48:24;;;;;;;;;;;;;;;-0.14;100.00;100951.72;4996983;28;19933;-79
2021/03/06 01:50:52;;;;;;;;;;;;;;;-0.07;100.00;100952.91;5014412;28;19976;-79
2021/03/06 01:53:19;;;;;;;;;;;;;;;-0.05;100.00;100953.41;5013279;28;19929;-79
2021/03/06 01:55:48;;;;;;;;;;;;;;;-0.11;100.00;100959.34;5013488;28;19926;-79
2021/03/06 01:58:16;;;;;;;;;;;;;;;-0.09;100.00;100957.91;5014397;28;19975;-79
2021/03/06 02:00:43;;;;;;;;;;;;;;;-0.04;100.00;100959.72;5013309;28;19925;-79
2021/03/06 02:03:09;;;;;;;;;;;;;;;0.09;100.00;100963.56;5014595;28;19932;-79
2021/03/06 02:05:36;;;;;;;;;;;;;;;0.11;100.00;100961.34;5013246;28;19929;-79
2021/03/06 02:08:03;;;;;;;;;;;;;;;0.06;100.00;100954.03;5012821;28;19932;-79
2021/03/06 02:10:31;;;;;;;;;;;;;;;0.03;100.00;100962.06;5013048;28;19932;-79
2021/03/06 02:13:06;;;;;;;;;;;;;;;-0.01;100.00;100961.84;5012646;28;19940;-79
2021/03/06 02:15:36;;;;;;;;;;;;;;;0.11;100.00;100967.63;5013927;28;19972;-79
2021/03/06 02:18:02;;;;;;;;;;;;;;;0.27;100.00;100948.88;5013067;28;19926;-79
2021/03/06 02:20:35;;;;;;;;;;;;;;;0.44;100.00;100954.53;5000610;28;19932;-79
2021/03/06 02:23:05;;;;;;;;;;;;;;;0.30;100.00;100954.56;5013033;28;20404;-79
2021/03/06 02:25:35;;;;;;;;;;;;;;;0.36;100.00;100947.81;4996854;28;19925;-79
2021/03/06 02:28:04;;;;;;;;;;;;;;;0.37;100.00;100945.88;5013029;28;19948;-79
2021/03/06 02:30:32;;;;;;;;;;;;;;;0.37;100.00;100943.13;5014330;28;19926;-79
2021/03/06 02:33:00;;;;;;;;;;;;;;;0.40;100.00;100946.06;5014251;28;19932;-79
2021/03/06 02:35:30;;;;;;;;;;;;;;;0.32;100.00;100944.06;4996208;28;20020;-79
2021/03/06 02:38:04;;;;;;;;;;;;;;;0.27;100.00;100930.44;5012642;28;19931;-79
2021/03/06 02:40:31;;;;;;;;;;;;;;;0.09;100.00;100931.41;5013960;28;19933;-79
2021/03/06 02:42:58;;;;;;;;;;;;;;;0.05;100.00;100935.88;5012740;28;20393;-78
2021/03/06 02:45:25;;;;;;;;;;;;;;;-0.01;100.00;100921.44;5012868;28;19952;-79
2021/03/06 02:47:52;;;;;;;;;;;;;;;0.14;100.00;100928.53;5012789;28;19968;-79
2021/03/06 02:50:19;;;;;;;;;;;;;;;0.17;100.00;100927.13;5012662;28;20280;-79
2021/03/06 02:52:45;;;;;;;;;;;;;;;0.25;100.00;100940.94;5012821;28;20304;-78
2021/03/06 02:55:12;;;;;;;;;;;;;;;0.18;100.00;100939.72;5012016;28;20288;-78
2021/03/06 02:57:39;;;;;;;;;;;;;;;0.30;100.00;100943.56;5011859;28;19925;-78
2021/03/06 03:00:19;;;;;;;;;;;;;;;0.35;100.00;100934.38;5013116;28;20030;-78
2021/03/06 03:02:53;;;;;;;;;;;;;;;0.28;100.00;100923.81;5013112;28;20270;-79
2021/03/06 03:05:32;;;;;;;;;;;;;;;0.22;100.00;100918.72;5012935;28;19925;-78
2021/03/06 03:07:59;;;;;;;;;;;;;;;0.14;100.00;100928.53;5013633;28;19926;-78
2021/03/06 03:10:29;;;;;;;;;;;;;;;0.10;100.00;100924.78;5014116;28;19933;-79
2021/03/06 03:12:57;;;;;;;;;;;;;;;0.03;100.00;100921.66;5028694;28;20332;-79
2021/03/06 03:15:29;;;;;;;;;;;;;;;-0.01;100.00;100926.13;5028895;28;19960;-79
2021/03/06 03:17:56;;;;;;;;;;;;;;;-0.05;100.00;100928.66;5013825;28;19926;-79
2021/03/06 03:20:43;;;;;;;;;;;;;;;-0.06;100.00;100928.97;5013719;28;19926;-79
2021/03/06 03:23:18;;;;;;;;;;;;;;;-0.18;100.00;100931.44;5017593;28;19992;-79
2021/03/06 03:25:52;;;;;;;;;;;;;;;-0.11;100.00;100940.91;5015974;28;19987;-79
2021/03/06 03:28:20;;;;;;;;;;;;;;;-0.14;100.00;100924.22;5017020;28;19929;-80
2021/03/06 03:30:48;;;;;;;;;;;;;;;-0.17;100.00;100933.09;5023943;28;19929;-79
2021/03/06 03:33:16;;;;;;;;;;;;;;;-0.12;100.00;100935.72;5022597;28;19968;-80
2021/03/06 03:35:44;;;;;;;;;;;;;;;-0.12;100.00;100932.97;5016596;28;19961;-79
2021/03/06 03:38:11;;;;;;;;;;;;;;;-0.15;100.00;100926.16;5016180;28;19925;-79
2021/03/06 03:40:38;;;;;;;;;;;;;;;-0.13;100.00;100929.41;5016772;28;19964;-79
2021/03/06 03:43:05;;;;;;;;;;;;;;;-0.11;100.00;100932.66;5016933;28;19971;-80
2021/03/06 03:45:32;;;;;;;;;;;;;;;-0.10;100.00;100931.56;5017121;28;19925;-79
2021/03/06 03:47:59;;;;;;;;;;;;;;;0.02;100.00;100930.22;5015592;28;19930;-79
2021/03/06 03:50:27;;;;;;;;;;;;;;;-0.02;100.00;100935.50;5016611;28;19972;-79
2021/03/06 03:52:53;;;;;;;;;;;;;;;-0.09;100.00;100935.09;5015439;28;20869;-79
2021/03/06 03:55:20;;;;;;;;;;;;;;;-0.16;100.00;100923.72;5015409;28;20375;-79
2021/03/06 03:57:47;;;;;;;;;;;;;;;-0.12;100.00;100927.47;4998996;28;19935;-79
2021/03/06 04:00:16;;;;;;;;;;;;;;;-0.36;100.00;100929.63;5017050;28;19971;-79
2021/03/06 04:02:43;;;;;;;;;;;;;;;-0.80;100.00;100929.44;5016471;28;19926;-79
2021/03/06 04:05:13;;;;;;;;;;;;;;;-0.53;100.00;100932.22;5016435;28;19925;-79
2021/03/06 04:07:47;;;;;;;;;;;;;;;-0.55;100.00;100931.69;5016635;28;20019;-79
2021/03/06 04:10:15;;;;;;;;;;;;;;;-0.79;100.00;100931.06;5015061;28;19932;-78
2021/03/06 04:12:42;;;;;;;;;;;;;;;-0.84;100.00;100933.91;5016100;28;19925;-79
2021/03/06 04:15:10;;;;;;;;;;;;;;;-0.77;100.00;100942.53;4998390;28;20327;-79
2021/03/06 04:17:36;;;;;;;;;;;;;;;-0.59;100.00;100941.66;5015281;28;19971;-79
2021/03/06 04:20:04;;;;;;;;;;;;;;;-0.51;100.00;100938.19;5016079;28;19932;-79
2021/03/06 04:22:30;;;;;;;;;;;;;;;-0.65;100.00;100940.16;5016350;28;19969;-79
2021/03/06 04:24:57;;;;;;;;;;;;;;;-0.62;100.00;100934.03;5016224;28;19936;-79
2021/03/06 04:27:24;;;;;;;;;;;;;;;-0.44;100.00;100933.13;5015968;28;19925;-79
2021/03/06 04:29:50;;;;;;;;;;;;;;;-0.46;100.00;100940.84;5016038;28;19926;-79
2021/03/06 04:32:17;;;;;;;;;;;;;;;-0.46;100.00;100946.34;5016023;28;20071;-79
2021/03/06 04:34:44;;;;;;;;;;;;;;;-0.63;100.00;100940.63;5014810;28;20415;-79
2021/03/06 04:37:10;;;;;;;;;;;;;;;-0.64;100.00;100952.75;5015828;28;20016;-79
2021/03/06 04:39:37;;;;;;;;;;;;;;;-0.70;100.00;100952.03;5014737;28;19936;-79
2021/03/06 04:42:04;;;;;;;;;;;;;;;-0.93;100.00;100954.94;5016115;28;20369;-79
2021/03/06 04:44:31;;;;;;;;;;;;;;;-0.83;100.00;100952.00;5016035;28;19925;-79
2021/03/06 04:46:58;;;;;;;;;;;;;;;-0.84;100.00;100956.69;5014686;28;19926;-79
2021/03/06 04:49:25;;;;;;;;;;;;;;;-0.79;100.00;100964.00;5015672;28;20015;-79
2021/03/06 04:51:52;;;;;;;;;;;;;;;-0.69;100.00;100964.63;5014601;28;19932;-79
2021/03/06 04:54:18;;;;;;;;;;;;;;;-0.55;100.00;100964.66;4997811;28;19925;-79
2021/03/06 04:56:45;;;;;;;;;;;;;;;-0.48;100.00;100976.03;5015394;28;19933;-79
2021/03/06 04:59:12;;;;;;;;;;;;;;;-0.45;100.00;100975.41;5030890;28;20012;-79
2021/03/06 05:01:38;;;;;;;;;;;;;;;-0.48;100.00;100982.34;5013800;28;19926;-79
2021/03/06 05:04:05;;;;;;;;;;;;;;;-0.27;100.00;100971.75;4994634;28;19977;-80
2021/03/06 05:06:45;;;;;;;;;;;;;;;-0.33;100.00;100983.97;5012293;28;19925;-80
2021/03/06 05:09:11;;;;;;;;;;;;;;;-0.35;100.00;100986.22;5015068;28;19926;-80
2021/03/06 05:11:38;;;;;;;;;;;;;;;-0.30;100.00;100983.34;5014112;28;20354;-79
2021/03/06 05:14:05;;;;;;;;;;;;;;;-0.29;100.00;100982.25;5015248;28;20323;-79
2021/03/06 05:16:32;;;;;;;;;;;;;;;-0.26;100.00;100984.38;5029842;28;19925;-79
2021/03/06 05:18:59;;;;;;;;;;;;;;;-0.28;100.00;100975.63;5014034;28;19926;-79
2021/03/06 05:21:25;;;;;;;;;;;;;;;-0.53;100.00;100978.91;5015134;28;19975;-79
2021/03/06 05:23:52;;;;;;;;;;;;;;;-0.71;100.00;100979.78;5014888;28;19932;-79
2021/03/06 05:26:18;;;;;;;;;;;;;;;-0.55;100.00;100976.47;5013580;28;19931;-79
2021/03/06 05:28:45;;;;;;;;;;;;;;;-0.44;100.00;100985.31;5013442;28;19971;-79
2021/03/06 05:31:11;;;;;;;;;;;;;;;-0.28;100.00;100992.13;5013375;28;19933;-79
2021/03/06 05:33:38;;;;;;;;;;;;;;;-0.15;100.00;100999.53;5014789;28;20293;-79
2021/03/06 05:36:05;;;;;;;;;;;;;;;-0.11;100.00;100986.81;5014986;28;20373;-79
2021/03/06 05:38:32;;;;;;;;;;;;;;;-0.02;100.00;100988.50;5014897;28;19925;-79
2021/03/06 05:40:59;;;;;;;;;;;;;;;-0.10;100.00;100992.00;5013676;28;20007;-80
2021/03/06 05:43:25;;;;;;;;;;;;;;;-0.02;100.00;100990.47;5014204;28;19988;-79
2021/03/06 05:45:52;;;;;;;;;;;;;;;-0.02;100.00;100995.97;5013253;28;20016;-79
2021/03/06 05:48:19;;;;;;;;;;;;;;;-0.04;100.00;100995.44;5014819;28;20060;-79
2021/03/06 05:50:47;;;;;;;;;;;;;;;0.01;100.00;101000.84;5014439;28;19925;-79
2021/03/06 05:53:15;;;;;;;;;;;;;;;-0.10;100.00;101010.41;5014481;28;20345;-79
2021/03/06 05:55:42;;;;;;;;;;;;;;;-0.15;100.00;101002.28;5013203;28;19961;-79
2021/03/06 05:58:09;;;;;;;;;;;;;;;-0.10;100.00;101005.75;5014582;28;19926;-79
2021/03/06 06:00:41;;;;;;;;;;;;;;;0.04;100.00;101005.72;5013001;28;19925;-79
2021/03/06 06:03:09;;;;;;;;;;;;;;;0.02;100.00;101004.44;5013084;28;20296;-79
2021/03/06 06:05:35;;;;;;;;;;;;;;;0.01;100.00;101006.34;5014670;28;19971;-79
2021/03/06 06:08:03;;;;;;;;;;;;;;;0.14;100.00;101011.00;5013024;28;19925;-79
2021/03/06 06:10:31;;;;;;;;;;;;;;;0.11;100.00;101006.13;5014178;28;19971;-79
2021/03/06 06:13:01;;;;;;;;;;;;;;;0.11;100.00;101013.56;5012947;28;19925;-79
2021/03/06 06:15:27;;;;;;;;;;;;;;;-0.03;100.00;101005.31;5013170;28;19929;-79
2021/03/06 06:17:54;;;;;;;;;;;;;;;-0.04;100.00;101015.50;5013521;28;19925;-79
2021/03/06 06:20:22;;;;;;;;;;;;;;;-0.03;100.00;101005.31;5029097;28;20372;-79
2021/03/06 06:22:48;;;;;;;;;;;;;;;0.03;100.00;101012.38;5014141;28;20023;-79
2021/03/06 06:25:29;;;;;;;;;;;;;;;0.14;100.00;101011.00;5013933;28;19957;-79
2021/03/06 06:28:02;;;;;;;;;;;;;;;0.16;100.00;101007.94;5029528;28;19929;-79
2021/03/06 06:30:29;;;;;;;;;;;;;;;0.14;100.00;101005.50;5028980;28;20327;-79
2021/03/06 06:32:56;;;;;;;;;;;;;;;0.12;100.00;100999.53;5014145;28;20559;-79
2021/03/06 06:35:22;;;;;;;;;;;;;;;0.05;100.00;101001.84;4996377;28;19933;-79
2021/03/06 06:37:57;;;;;;;;;;;;;;;-0.05;100.00;100996.59;5029662;28;19932;-79
2021/03/06 06:40:24;;;;;;;;;;;;;;;0.05;100.00;100996.34;5012804;28;19926;-79
2021/03/06 06:42:51;;;;;;;;;;;;;;;0.07;100.00;100996.88;5013997;28;19925;-79
2021/03/06 06:45:18;;;;;;;;;;;;;;;-0.06;100.00;100997.69;5013867;28;19929;-80
2021/03/06 06:47:46;;;;;;;;;;;;;;;0.04;100.00;100994.75;4996791;28;19925;-80
2021/03/06 06:50:14;;;;;;;;;;;;;;;0.07;100.00;100991.38;5014007;28;19932;-79
2021/03/06 06:52:41;;;;;;;;;;;;;;;0.10;100.00;100999.00;5012582;28;19925;-79
2021/03/06 06:55:09;;;;;;;;;;;;;;;0.16;100.00;100997.78;5029276;28;19926;-80
2021/03/06 06:57:46;;;;;;;;;;;;;;;0.17;100.00;100993.88;5016692;28;20377;-80
2021/03/06 07:00:14;;;;;;;;;;;;;;;0.19;100.00;100991.66;5016553;28;19965;-80
2021/03/06 07:02:52;;;;;;;;;;;;;;;0.22;100.00;100993.78;5016074;28;19925;-83
2021/03/06 07:05:27;;;;;;;;;;;;;;;0.24;100.00;100997.06;5033429;28;19925;-87
2021/03/06 07:07:53;;;;;;;;;;;;;;;0.30;100.00;101006.00;5015729;28;19929;-81
2021/03/06 07:10:21;;;;;;;;;;;;;;;0.37;100.00;101009.94;5018328;28;20446;-79
2021/03/06 07:12:58;;;;;;;;;;;;;;;0.34;100.00;101004.25;5010904;28;20376;-79
2021/03/06 07:15:26;;;;;;;;;;;;;;;0.40;100.00;101005.75;5018178;28;20304;-79
2021/03/06 07:17:55;;;;;;;;;;;;;;;0.48;100.00;101005.84;5011464;28;19925;-79
2021/03/06 07:20:22;;;;;;;;;;;;;;;0.46;100.00;101008.09;5026017;28;19926;-79
2021/03/06 07:22:50;;;;;;;;;;;;;;;0.46;100.00;101008.09;4999332;28;20008;-79
2021/03/06 07:25:17;;;;;;;;;;;;;;;0.47;100.00;101009.69;5007776;28;19948;-79
2021/03/06 07:27:44;;;;;;;;;;;;;;;0.51;100.00;101005.22;4993840;28;20393;-79
2021/03/06 07:30:12;;;;;;;;;;;;;;;0.55;100.00;101008.97;5013529;28;19926;-79
2021/03/06 07:32:42;;;;;;;;;;;;;;;0.60;100.00;101011.63;5014414;28;20288;-79
2021/03/06 07:35:10;;;;;;;;;;;;;;;0.66;100.00;101007.63;5014231;28;19972;-79
2021/03/06 07:37:37;;;;;;;;;;;;;;;0.67;100.00;101009.22;5014197;28;20376;-79
2021/03/06 07:40:05;;;;;;;;;;;;;;;0.70;100.00;101003.09;5015470;28;19948;-79
2021/03/06 07:42:49;;;;;;;;;;;;;;;0.74;100.00;101008.81;5013987;28;20392;-79
2021/03/06 07:45:21;;;;;;;;;;;;;;;0.78;100.00;101005.13;5022437;28;20008;-79
2021/03/06 07:47:50;;;;;;;;;;;;;;;0.86;100.00;100998.88;5026467;28;19933;-79
2021/03/06 07:50:23;;;;;;;;;;;;;;;0.99;100.00;101009.00;5022089;28;20020;-79
2021/03/06 07:52:50;;;;;;;;;;;;;;;1.13;100.00;101006.16;5013442;28;19929;-79
2021/03/06 07:55:17;;;;;;;;;;;;;;;1.18;100.00;101003.28;5015900;28;19926;-79
2021/03/06 07:58:03;;;;;;;;;;;;;;;1.28;100.00;101008.53;5013505;28;19957;-79
2021/03/06 08:00:38;;;;;;;;;;;;;;;1.32;100.00;101004.81;5013531;28;19973;-79
2021/03/06 08:03:27;;;;;;;;;;;;;;;1.35;100.00;101004.19;5013536;28;20292;-80
2021/03/06 08:05:54;;;;;;;;;;;;;;;1.42;100.00;101010.06;5013640;28;20676;-79
2021/03/06 08:08:53;;;;;;;;;;;;;;;1.44;100.00;101007.81;5014859;28;19937;-82
2021/03/06 08:11:33;;;;;;;;;;;;;;;1.52;100.00;101015.31;5013244;28;20007;-78
2021/03/06 08:14:02;;;;;;;;;;;;;;;1.63;100.00;101005.66;5011884;28;20328;-78
2021/03/06 08:16:28;;;;;;;;;;;;;;;1.77;100.00;101017.34;5003209;28;20376;-78
2021/03/06 08:18:55;;;;;;;;;;;;;;;1.82;100.00;101013.63;5025985;28;19933;-78
2021/03/06 08:21:27;;;;;;;;;;;;;;;1.88;100.00;101014.34;5033435;28;19925;-78
2021/03/06 08:24:15;;;;;;;;;;;;;;;1.95;100.00;101014.66;5012804;28;20873;-77
2021/03/06 08:26:52;;;;;;;;;;;;;;;2.07;100.00;101014.88;5016202;28;19925;-77
2021/03/06 08:29:27;;;;;;;;;;;;;;;2.16;100.00;101013.75;5015514;28;19925;-77
2021/03/06 08:32:12;;;;;;;;;;;;;;;2.38;100.00;101010.06;5000283;28;20019;-77
2021/03/06 08:34:38;;;;;;;;;;;;;;;2.48;100.00;101009.75;5002081;28;19925;-78
2021/03/06 08:37:19;;;;;;;;;;;;;;;2.57;100.00;101000.34;5014351;28;19933;-76
2021/03/06 08:39:46;;;;;;;;;;;;;;;2.62;100.00;100999.38;5013938;28;20397;-76
2021/03/06 08:42:13;;;;;;;;;;;;;;;2.62;100.00;100993.84;5014110;28;20296;-77
2021/03/06 08:44:40;;;;;;;;;;;;;;;2.63;100.00;100988.00;5014079;28;19925;-78
2021/03/06 08:47:07;;;;;;;;;;;;;;;2.67;100.00;100974.34;5014271;28;19936;-76
2021/03/06 08:49:34;;;;;;;;;;;;;;;2.84;100.00;100969.66;5012986;28;19930;-77
2021/03/06 08:52:01;;;;;;;;;;;;;;;3.00;100.00;100968.00;5012940;28;20024;-78
2021/03/06 08:54:36;;;;;;;;;;;;;;;3.15;100.00;100967.47;5013714;28;19936;-84
2021/03/06 08:57:03;;;;;;;;;;;;;;;3.24;100.00;100968.25;5012834;28;19925;-84
2021/03/06 08:59:38;;;;;;;;;;;;;;;3.35;100.00;100963.19;5011842;28;19926;-82
2021/03/06 09:02:19;;;;;;;;;;;;;;;3.46;100.00;100953.41;4991323;28;19948;-87
2021/03/06 09:04:59;;;;;;;;;;;;;;;3.58;100.00;100953.50;5012629;28;19926;-76
2021/03/06 09:07:33;;;;;;;;;;;;;;;3.77;100.00;100944.81;5012568;28;19948;-76
2021/03/06 09:10:18;;;;;;;;;;;;;;;3.82;100.00;100939.88;5013437;28;19925;-76
2021/03/06 09:12:46;;;;;;;;;;;;;;;3.99;100.00;100934.25;5010961;28;19926;-76
2021/03/06 09:15:23;;;;;;;;;;;;;;;4.05;100.00;100916.31;5015238;28;19951;-76
2021/03/06 09:17:49;;;;;;;;;;;;;;;4.15;100.00;100910.38;5021602;28;19931;-77
2021/03/06 09:20:16;;;;;;;;;;;;;;;3.95;100.00;100905.66;5012606;28;19925;-76
2021/03/06 09:22:44;;;;;;;;;;;;;;;3.83;100.00;100891.75;5014022;28;20419;-76
2021/03/06 09:25:12;;;;;;;;;;;;;;;3.70;100.00;100896.38;5011043;28;19933;-77
2021/03/06 09:27:46;;;;;;;;;;;;;;;3.60;100.00;100887.66;5014163;28;19929;-77
2021/03/06 09:30:28;;;;;;;;;;;;;;;3.70;100.00;100881.72;5018128;28;19960;-76
2021/03/06 09:32:56;;;;;;;;;;;;;;;3.76;100.00;100885.91;5014533;28;19929;-77
2021/03/06 09:35:23;;;;;;;;;;;;;;;3.73;100.00;100881.06;5023550;28;19979;-77
2021/03/06 09:38:10;;;;;;;;;;;;;;;3.88;100.00;100880.47;5016099;28;20027;-77
2021/03/06 09:40:41;;;;;;;;;;;;;;;3.83;100.00;100877.94;5017494;28;19948;-80
2021/03/06 09:43:28;;;;;;;;;;;;;;;3.84;100.00;100871.25;5014132;28;20434;-76
2021/03/06 09:45:55;;;;;;;;;;;;;;;3.83;100.00;100874.34;5012988;28;20005;-76
2021/03/06 09:48:23;;;;;;;;;;;;;;;3.96;100.00;100874.09;5013126;28;20008;-76
2021/03/06 09:50:51;;;;;;;;;;;;;;;4.00;100.00;100863.94;5014874;28;19925;-76
2021/03/06 09:53:28;;;;;;;;;;;;;;;3.85;100.00;100861.78;5018052;28;22160;-76
2021/03/06 09:56:05;;;;;;;;;;;;;;;3.76;100.00;100863.81;5009851;28;20349;-76
2021/03/06 09:58:31;;;;;;;;;;;;;;;3.85;100.00;100859.03;5029396;28;20014;-77
2021/03/06 10:01:17;;;;;;;;;;;;;;;4.00;100.00;100852.88;4993478;28;20412;-77
2021/03/06 10:03:48;;;;;;;;;;;;;;;4.01;100.00;100862.81;4987273;28;19940;-77
2021/03/06 10:06:17;;;;;;;;;;;;;;;3.82;100.00;100859.69;5019201;28;19925;-77
2021/03/06 10:08:50;;;;;;;;;;;;;;;3.80;100.00;100863.94;5022299;28;19926;-77
2021/03/06 10:11:17;;;;;;;;;;;;;;;3.77;100.00;100862.69;5010321;28;20377;-76
2021/03/06 10:13:44;;;;;;;;;;;;;;;3.78;100.00;100860.69;5013736;28;19960;-77
2021/03/06 10:16:11;;;;;;;;;;;;;;;4.06;100.00;100859.84;5013678;28;19936;-77
2021/03/06 10:18:39;;;;;;;;;;;;;;;4.10;100.00;100860.81;5014608;28;20431;-78
2021/03/06 10:21:14;;;;;;;;;;;;;;;3.95;100.00;100861.41;5018254;28;19931;-77
2021/03/06 10:23:42;;;;;;;;;;;;;;;4.15;100.00;100860.59;5008384;28;19932;-78
2021/03/06 10:26:25;;;;;;;;;;;;;;;4.33;100.00;100861.25;5027296;28;19937;-79
2021/03/06 10:28:59;;;;;;;;;;;;;;;4.53;100.00;100857.66;5025190;28;19937;-79
2021/03/06 10:31:26;;;;;;;;;;;;;;;4.65;100.00;100864.03;4998335;28;19932;-78
2021/03/06 10:33:53;;;;;;;;;;;;;;;4.69;100.00;100862.22;5015841;28;19937;-78
2021/03/06 10:36:19;;;;;;;;;;;;;;;4.47;100.00;100861.78;5015208;28;20441;-78
2021/03/06 10:38:46;;;;;;;;;;;;;;;4.32;100.00;100854.91;5016730;28;19926;-79
2021/03/06 10:41:21;;;;;;;;;;;;;;;4.53;100.00;100855.69;5015038;28;19933;-79
2021/03/06 10:43:51;;;;;;;;;;;;;;;4.38;100.00;100852.72;5004502;28;20262;-79
2021/03/06 10:46:25;;;;;;;;;;;;;;;4.14;100.00;100847.09;4999016;28;19936;-79
2021/03/06 10:48:53;;;;;;;;;;;;;;;4.03;100.00;100856.97;5032899;28;20324;-78
2021/03/06 10:51:20;;;;;;;;;;;;;;;3.90;100.00;100847.78;4997741;28;19926;-78
2021/03/06 10:54:03;;;;;;;;;;;;;;;4.05;100.00;100849.94;5009884;28;20416;-78
2021/03/06 10:56:29;;;;;;;;;;;;;;;4.23;100.00;100851.41;5017319;28;20277;-79
2021/03/06 10:58:58;;;;;;;;;;;;;;;4.15;100.00;100846.75;4999714;28;19930;-78
2021/03/06 11:01:34;;;;;;;;;;;;;;;4.23;100.00;100848.63;5011901;28;19988;-79
2021/03/06 11:04:01;;;;;;;;;;;;;;;4.32;100.00;100846.59;5034227;28;20373;-77
2021/03/06 11:06:28;;;;;;;;;;;;;;;4.37;100.00;100840.88;5000516;28;20296;-79
2021/03/06 11:09:03;;;;;;;;;;;;;;;4.60;100.00;100839.34;5017370;28;19929;-80
2021/03/06 11:11:39;;;;;;;;;;;;;;;4.61;100.00;100840.13;5016905;28;19971;-78
2021/03/06 11:14:20;;;;;;;;;;;;;;;4.55;100.00;100831.25;5016527;28;19933;-78
2021/03/06 11:16:46;;;;;;;;;;;;;;;4.63;100.00;100835.06;5016937;28;19936;-78
2021/03/06 11:19:13;;;;;;;;;;;;;;;4.81;100.00;100831.78;5016604;28;19925;-79
2021/03/06 11:21:39;;;;;;;;;;;;;;;5.03;100.00;100825.81;5016631;28;19926;-79
2021/03/06 11:24:07;;;;;;;;;;;;;;;5.30;100.00;100830.69;4999504;28;20404;-79
2021/03/06 11:26:35;;;;;;;;;;;;;;;5.29;100.00;100833.78;5014802;28;19965;-79
2021/03/06 11:29:03;;;;;;;;;;;;;;;5.18;100.00;100827.13;4996500;28;20304;-80
2021/03/06 11:31:31;;;;;;;;;;;;;;;5.00;100.00;100829.28;5016954;28;19933;-79
2021/03/06 11:33:59;;;;;;;;;;;;;;;5.00;100.00;100820.13;5010053;28;19975;-78
2021/03/06 11:36:26;;;;;;;;;;;;;;;5.07;100.00;100825.94;5012152;28;20369;-78
2021/03/06 11:38:52;;;;;;;;;;;;;;;5.08;100.00;100817.28;5016539;28;20281;-79
2021/03/06 11:41:18;;;;;;;;;;;;;;;4.96;100.00;100808.97;5014791;28;19932;-80
2021/03/06 11:43:45;;;;;;;;;;;;;;;5.20;100.00;100814.53;5016603;28;20031;-81
2021/03/06 11:46:12;;;;;;;;;;;;;;;5.35;100.00;100807.47;5032368;28;20016;-81
2021/03/06 11:48:38;;;;;;;;;;;;;;;5.70;100.00;100807.78;5014715;28;20017;-79
2021/03/06 11:51:05;;;;;;;;;;;;;;;5.79;100.00;100808.44;5014785;28;19925;-78
2021/03/06 11:53:33;;;;;;;;;;;;;;;5.87;100.00;100804.78;5016175;28;19968;-79
2021/03/06 11:55:59;;;;;;;;;;;;;;;5.80;100.00;100799.00;5016013;28;19925;-79
2021/03/06 11:58:26;;;;;;;;;;;;;;;5.78;100.00;100806.84;5022142;28;20435;-79
2021/03/06 12:00:52;;;;;;;;;;;;;;;5.95;100.00;100799.09;5014907;28;19925;-79
2021/03/06 12:03:19;;;;;;;;;;;;;;;6.13;100.00;100796.84;5013578;28;20304;-79
2021/03/06 12:05:46;;;;;;;;;;;;;;;5.78;100.00;100790.19;5013663;28;19926;-79
2021/03/06 12:08:13;;;;;;;;;;;;;;;5.48;100.00;100784.94;5030090;28;19926;-79
2021/03/06 12:10:39;;;;;;;;;;;;;;;5.49;100.00;100778.25;5029937;28;19926;-79
2021/03/06 12:13:06;;;;;;;;;;;;;;;5.34;100.00;100776.19;5013528;28;19972;-79
2021/03/06 12:15:33;;;;;;;;;;;;;;;5.39;100.00;100767.59;5013332;28;20020;-79
2021/03/06 12:18:00;;;;;;;;;;;;;;;5.52;100.00;100760.91;5029718;28;19933;-79
2021/03/06 12:20:26;;;;;;;;;;;;;;;5.65;100.00;100758.91;5013501;28;20020;-79
2021/03/06 12:22:53;;;;;;;;;;;;;;;5.78;100.00;100759.69;5029824;28;20019;-79
2021/03/06 12:25:19;;;;;;;;;;;;;;;5.84;100.00;100756.34;5009251;28;19926;-80
2021/03/06 12:27:46;;;;;;;;;;;;;;;5.79;100.00;100752.97;5021091;28;19929;-79
2021/03/06 12:30:14;;;;;;;;;;;;;;;5.55;100.00;100746.34;5014379;28;19957;-79
2021/03/06 12:32:43;;;;;;;;;;;;;;;5.32;100.00;100747.19;5013113;28;20024;-79
2021/03/06 12:35:10;;;;;;;;;;;;;;;5.34;100.00;100754.00;5013153;28;20389;-78
2021/03/06 12:37:37;;;;;;;;;;;;;;;5.32;100.00;100739.69;5014320;28;19933;-79
2021/03/06 12:40:06;;;;;;;;;;;;;;;5.38;100.00;100754.91;5013376;28;19926;-78
2021/03/06 12:42:33;;;;;;;;;;;;;;;5.29;100.00;100745.09;5013045;28;19941;-78